ADDS METAR Data INFO
IDs: Format: Raw Decoded Include TAF

Data at: 0217 UTC 14 Dec 2017

KUGN 140202Z AUTO 34009G20KT 4SM BR FEW012 BKN017 OVC028 M02/M04 A2958 RMK AO2 SNE0157 P0000 T10221044
KUGN 140155Z 34008G16KT 3SM -SN BR BKN014 BKN021 OVC028 M02/M04 A2958 RMK AO2 SNB0057 PRESRR SLP031 LAST P0000 T10221044
KUGN 140141Z 34009G19KT 2 1/2SM -SN BR BKN014 OVC021 M03/M05 A2956 RMK AO2 SNB0057 PRESRR P0000 T10281050
KUGN 140122Z 32008G19KT 1 3/4SM -SN OVC017 M03/M06 A2953 RMK AO2 SNB0057 PRESRR P0000 T10281056
KUGN 140055Z 31010G21KT 4SM HZ BKN019 BKN027 OVC038 M03/M06 A2951 RMK AO2 PK WND 33027/0017 SNB44E52 PRESRR SLP006 P0000 T10281061
KUGN 132355Z 31012G23KT 280V340 8SM BKN022 OVC050 M02/M06 A2944 RMK AO2 PK WND 30027/2324 SNB08E16 PRESRR SLP983 P0000 60000 T10221061 10017 21022 53040
KUGN 132255Z 33012G24KT 10SM BKN022 BKN029 OVC044 M01/M05 A2938 RMK AO2 PK WND 29026/2213 SNB23E36 SLP962 P0000 T10111050
KUGN 132216Z 32015G26KT 8SM OVC028 00/M05 A2934 RMK AO2 PK WND 29026/2213 PRESRR T00001050
KUGN 132155Z 31011G20KT 10SM OVC030 01/M05 A2932 RMK AO2 SLP942 T00061050
KUGN 132152Z 30012G20KT 10SM OVC030 01/M04 A2932 RMK AO2
KUGN 132118Z 30007G18KT 10SM FEW019 BKN028 OVC044 01/M03 A2929 RMK AO2 T00061033
KUGN 132055Z 31009G17KT 7SM FEW024 SCT030 OVC044 01/M03 A2928 RMK AO2 SNB32E43 SLP929 P0000 60000 T00111028 55005
KUGN 131955Z 27006KT 10SM OVC030 01/M03 A2925 RMK AO2 SLP917 T00111033
KUGN 131855Z 22010KT 10SM BKN036 OVC100 01/M04 A2926 RMK AO2 SLP921 T00111044
KUGN 131755Z 20009KT 10SM OVC065 00/M06 A2930 RMK AO2 SLP935 T00001056 10000 21044 58044
KUGN 131655Z 20011G17KT 10SM OVC110 M01/M07 A2936 RMK AO2 SLP957 T10061067
KUGN 131555Z 18017G25KT 10SM CLR M01/M08 A2938 RMK AO2 PRESFR SLP965 T10111078
KUGN 131455Z 16013KT 10SM OVC090 M02/M08 A2943 RMK AO2 PRESFR SLP983 T10171078 56072
KUGN 131355Z 17012KT 10SM SCT090 OVC100 M03/M09 A2950 RMK AO2 SLP007 T10331094
KUGN 131255Z 18011G19KT 10SM OVC090 M04/M11 A2958 RMK AO2 SLP035 T10441111
KUGN 131155Z 18012KT 10SM BKN039 OVC070 M04/M12 A2965 RMK AO2 SLP058 T10441117 11044 21072 56045
KUGN 131055Z AUTO 18009KT 10SM OVC040 M05/M12 A2969 RMK AO2 SLP074 T10501117
KUGN 130955Z AUTO 16008KT 10SM BKN040 OVC080 M06/M12 A2973 RMK AO2 SLP084 T10561117
KUGN 130855Z AUTO 18007KT 10SM OVC034 M06/M12 A2978 RMK AO2 SLP104 T10611117 58031
KUGN 130819Z AUTO 19006KT 10SM OVC031 M06/M12 A2981 RMK AO2 T10611117
KUGN 130755Z AUTO 18004KT 10SM OVC027 M06/M12 A2982 RMK AO2 SLP116 T10611117
KUGN 130729Z AUTO 17005KT 10SM OVC029 M07/M12 A2982 RMK AO2 T10671122
KUGN 130655Z AUTO 22005KT 10SM OVC032 M07/M12 A2985 RMK AO2 SLP127 T10671122
KUGN 130555Z AUTO 22004KT 10SM BKN047 OVC055 M07/M13 A2988 RMK AO2 SLP137 T10721133 11072 21106 410281106 58026
KUGN 130455Z AUTO 00000KT 10SM FEW047 OVC060 M08/M15 A2991 RMK AO2 SLP149 T10781150
KUGN 130355Z AUTO 00000KT 10SM OVC080 M08/M16 A2995 RMK AO2 SLP163 T10831156
KUGN 130255Z AUTO VRB03KT 10SM OVC075 M08/M15 A2996 RMK AO2 SLP166 T10831150 58012
KUGN 130155Z 23003KT 10SM FEW070 OVC090 M09/M16 A2997 RMK AO2 SLP170 LAST T10941161
KUGN 130055Z 28003KT 10SM BKN095 M09/M17 A2999 RMK AO2 SLP177 T10941167
KUGN 122355Z 30004KT 10SM CLR M08/M17 A2999 RMK AO2 SLP177 T10831167 11056 21083 58005
KUGN 122255Z 28004KT 10SM CLR M08/M16 A2999 RMK AO2 SLP177 T10831161
KUGN 122155Z 30008KT 10SM CLR M07/M17 A3001 RMK AO2 SLP183 T10721167
KUGN 122055Z 30009G16KT 10SM CLR M07/M14 A3001 RMK AO2 SLP180 T10671144 56013
KUGN 121955Z 29008G18KT 260V320 10SM CLR M06/M14 A3002 RMK AO2 SLP182 T10611144
KUGN 121855Z 31008G18KT 10SM FEW036 M07/M15 A3003 RMK AO2 SLP188 T10671150
KUGN 121755Z 29009G19KT 10SM FEW036 M07/M15 A3005 RMK AO2 SLP191 T10671150 11067 21089 58008
KUGN 121655Z 32010G19KT 10SM CLR M07/M15 A3007 RMK AO2 SLP198 T10721150
KUGN 121555Z 32011G20KT 10SM CLR M08/M15 A3008 RMK AO2 SLP202 T10781150
KUGN 121455Z 31011G18KT 10SM FEW029 M08/M14 A3007 RMK AO2 SLP199 T10831144 53012